sensor_id;sensor_type;location;lat;lon;timestamp;P1;durP1;ratioP1;P2;durP2;ratioP2
59950;SDS011;45812;53.540;9.774;2023-07-13T00:02:24;5.87;;;2.30;;
59950;SDS011;45812;53.540;9.774;2023-07-13T00:04:51;4.80;;;2.55;;
59950;SDS011;45812;53.540;9.774;2023-07-13T00:07:17;4.03;;;2.03;;
59950;SDS011;45812;53.540;9.774;2023-07-13T00:09:44;6.68;;;2.53;;
59950;SDS011;45812;53.540;9.774;2023-07-13T00:12:29;3.78;;;2.10;;
59950;SDS011;45812;53.540;9.774;2023-07-13T00:14:57;4.15;;;2.50;;
59950;SDS011;45812;53.540;9.774;2023-07-13T00:17:23;2.28;;;1.90;;
59950;SDS011;45812;53.540;9.774;2023-07-13T00:19:49;4.40;;;2.30;;
59950;SDS011;45812;53.540;9.774;2023-07-13T00:22:14;9.23;;;2.22;;
59950;SDS011;45812;53.540;9.774;2023-07-13T00:24:40;3.17;;;1.92;;
59950;SDS011;45812;53.540;9.774;2023-07-13T00:27:06;9.85;;;2.78;;
59950;SDS011;45812;53.540;9.774;2023-07-13T00:29:35;6.60;;;1.88;;
59950;SDS011;45812;53.540;9.774;2023-07-13T00:32:02;6.88;;;2.55;;
59950;SDS011;45812;53.540;9.774;2023-07-13T00:34:28;2.75;;;2.22;;
59950;SDS011;45812;53.540;9.774;2023-07-13T00:36:54;2.70;;;2.47;;
59950;SDS011;45812;53.540;9.774;2023-07-13T00:39:19;4.63;;;2.40;;
59950;SDS011;45812;53.540;9.774;2023-07-13T00:41:45;7.38;;;2.22;;
59950;SDS011;45812;53.540;9.774;2023-07-13T00:44:14;9.13;;;2.40;;
59950;SDS011;45812;53.540;9.774;2023-07-13T00:46:41;4.03;;;2.10;;
59950;SDS011;45812;53.540;9.774;2023-07-13T00:49:07;4.10;;;1.83;;
59950;SDS011;45812;53.540;9.774;2023-07-13T00:51:39;3.55;;;2.28;;
59950;SDS011;45812;53.540;9.774;2023-07-13T00:56:38;4.38;;;2.13;;
59950;SDS011;45812;53.540;9.774;2023-07-13T00:59:05;3.58;;;2.08;;
59950;SDS011;45812;53.540;9.774;2023-07-13T01:01:33;5.80;;;2.88;;
59950;SDS011;45812;53.540;9.774;2023-07-13T01:03:58;6.20;;;2.70;;
59950;SDS011;45812;53.540;9.774;2023-07-13T01:06:24;9.40;;;3.07;;
59950;SDS011;45812;53.540;9.774;2023-07-13T01:08:49;8.50;;;2.90;;
59950;SDS011;45812;53.540;9.774;2023-07-13T01:11:18;3.35;;;2.80;;
59950;SDS011;45812;53.540;9.774;2023-07-13T01:13:45;4.10;;;3.17;;
59950;SDS011;45812;53.540;9.774;2023-07-13T01:16:15;7.77;;;3.07;;
59950;SDS011;45812;53.540;9.774;2023-07-13T01:18:49;4.43;;;3.45;;
59950;SDS011;45812;53.540;9.774;2023-07-13T01:21:14;6.90;;;3.28;;
59950;SDS011;45812;53.540;9.774;2023-07-13T01:23:39;4.38;;;3.22;;
59950;SDS011;45812;53.540;9.774;2023-07-13T01:26:05;5.20;;;3.47;;
59950;SDS011;45812;53.540;9.774;2023-07-13T01:28:30;9.43;;;3.40;;
59950;SDS011;45812;53.540;9.774;2023-07-13T01:30:56;10.52;;;3.88;;
59950;SDS011;45812;53.540;9.774;2023-07-13T01:33:23;8.10;;;3.35;;
59950;SDS011;45812;53.540;9.774;2023-07-13T01:35:50;10.85;;;3.60;;
59950;SDS011;45812;53.540;9.774;2023-07-13T01:38:16;5.53;;;3.60;;
59950;SDS011;45812;53.540;9.774;2023-07-13T01:40:43;6.72;;;4.10;;
59950;SDS011;45812;53.540;9.774;2023-07-13T01:43:09;8.15;;;3.75;;
59950;SDS011;45812;53.540;9.774;2023-07-13T01:45:34;9.32;;;3.95;;
59950;SDS011;45812;53.540;9.774;2023-07-13T01:48:00;10.18;;;3.67;;
59950;SDS011;45812;53.540;9.774;2023-07-13T01:50:25;9.17;;;4.03;;
59950;SDS011;45812;53.540;9.774;2023-07-13T01:52:51;7.65;;;3.53;;
59950;SDS011;45812;53.540;9.774;2023-07-13T01:55:16;10.07;;;4.20;;
59950;SDS011;45812;53.540;9.774;2023-07-13T01:57:41;8.50;;;4.00;;
59950;SDS011;45812;53.540;9.774;2023-07-13T02:00:08;5.30;;;4.10;;
59950;SDS011;45812;53.540;9.774;2023-07-13T02:02:35;8.55;;;4.00;;
59950;SDS011;45812;53.540;9.774;2023-07-13T02:05:00;8.37;;;5.13;;
59950;SDS011;45812;53.540;9.774;2023-07-13T02:07:25;8.50;;;4.45;;
59950;SDS011;45812;53.540;9.774;2023-07-13T02:09:51;7.60;;;4.40;;
59950;SDS011;45812;53.540;9.774;2023-07-13T02:12:16;7.72;;;4.65;;
59950;SDS011;45812;53.540;9.774;2023-07-13T02:14:41;9.82;;;4.78;;
59950;SDS011;45812;53.540;9.774;2023-07-13T02:17:06;8.53;;;4.33;;
59950;SDS011;45812;53.540;9.774;2023-07-13T02:19:34;12.38;;;4.82;;
59950;SDS011;45812;53.540;9.774;2023-07-13T02:21:59;8.10;;;4.43;;
59950;SDS011;45812;53.540;9.774;2023-07-13T02:24:24;9.52;;;4.50;;
59950;SDS011;45812;53.540;9.774;2023-07-13T02:26:50;7.32;;;4.57;;
59950;SDS011;45812;53.540;9.774;2023-07-13T02:29:15;10.00;;;4.43;;
59950;SDS011;45812;53.540;9.774;2023-07-13T02:31:40;10.17;;;4.80;;
59950;SDS011;45812;53.540;9.774;2023-07-13T02:34:06;10.07;;;4.65;;
59950;SDS011;45812;53.540;9.774;2023-07-13T02:36:31;8.87;;;4.13;;
59950;SDS011;45812;53.540;9.774;2023-07-13T02:39:00;5.68;;;4.22;;
59950;SDS011;45812;53.540;9.774;2023-07-13T02:41:28;6.40;;;4.50;;
59950;SDS011;45812;53.540;9.774;2023-07-13T02:43:53;13.32;;;4.97;;
59950;SDS011;45812;53.540;9.774;2023-07-13T02:46:19;6.55;;;4.07;;
59950;SDS011;45812;53.540;9.774;2023-07-13T02:48:44;7.88;;;4.93;;
59950;SDS011;45812;53.540;9.774;2023-07-13T02:51:10;7.78;;;4.25;;
59950;SDS011;45812;53.540;9.774;2023-07-13T02:53:35;7.10;;;4.60;;
59950;SDS011;45812;53.540;9.774;2023-07-13T02:56:01;8.05;;;4.78;;
59950;SDS011;45812;53.540;9.774;2023-07-13T02:58:26;8.77;;;4.65;;
59950;SDS011;45812;53.540;9.774;2023-07-13T03:00:51;6.50;;;4.65;;
59950;SDS011;45812;53.540;9.774;2023-07-13T03:03:17;10.95;;;4.43;;
59950;SDS011;45812;53.540;9.774;2023-07-13T03:05:43;10.40;;;4.90;;
59950;SDS011;45812;53.540;9.774;2023-07-13T03:08:10;11.07;;;4.78;;
59950;SDS011;45812;53.540;9.774;2023-07-13T03:10:36;5.10;;;4.55;;
59950;SDS011;45812;53.540;9.774;2023-07-13T03:13:02;5.10;;;4.50;;
59950;SDS011;45812;53.540;9.774;2023-07-13T03:15:27;10.07;;;4.65;;
59950;SDS011;45812;53.540;9.774;2023-07-13T03:17:52;9.98;;;4.97;;
59950;SDS011;45812;53.540;9.774;2023-07-13T03:20:18;7.70;;;4.40;;
59950;SDS011;45812;53.540;9.774;2023-07-13T03:22:44;8.98;;;4.30;;
59950;SDS011;45812;53.540;9.774;2023-07-13T03:25:09;8.48;;;4.63;;
59950;SDS011;45812;53.540;9.774;2023-07-13T03:27:35;8.70;;;4.82;;
59950;SDS011;45812;53.540;9.774;2023-07-13T03:30:01;8.05;;;4.93;;
59950;SDS011;45812;53.540;9.774;2023-07-13T03:32:26;8.70;;;4.32;;
59950;SDS011;45812;53.540;9.774;2023-07-13T03:34:51;7.60;;;5.07;;
59950;SDS011;45812;53.540;9.774;2023-07-13T03:37:16;5.80;;;4.80;;
59950;SDS011;45812;53.540;9.774;2023-07-13T03:39:42;7.47;;;4.50;;
59950;SDS011;45812;53.540;9.774;2023-07-13T03:42:07;10.77;;;4.82;;
59950;SDS011;45812;53.540;9.774;2023-07-13T03:44:32;5.53;;;4.32;;
59950;SDS011;45812;53.540;9.774;2023-07-13T03:46:58;9.07;;;4.90;;
59950;SDS011;45812;53.540;9.774;2023-07-13T03:49:23;9.97;;;4.70;;
59950;SDS011;45812;53.540;9.774;2023-07-13T03:51:48;9.73;;;4.57;;
59950;SDS011;45812;53.540;9.774;2023-07-13T03:54:14;14.48;;;4.70;;
59950;SDS011;45812;53.540;9.774;2023-07-13T03:56:39;10.02;;;4.57;;
59950;SDS011;45812;53.540;9.774;2023-07-13T03:59:04;9.93;;;4.60;;
59950;SDS011;45812;53.540;9.774;2023-07-13T04:01:30;8.50;;;4.55;;
59950;SDS011;45812;53.540;9.774;2023-07-13T04:03:55;9.43;;;4.50;;
59950;SDS011;45812;53.540;9.774;2023-07-13T04:06:21;7.05;;;4.43;;
59950;SDS011;45812;53.540;9.774;2023-07-13T04:08:50;12.88;;;4.97;;
59950;SDS011;45812;53.540;9.774;2023-07-13T04:11:17;8.35;;;5.18;;
59950;SDS011;45812;53.540;9.774;2023-07-13T04:13:44;8.48;;;5.07;;
59950;SDS011;45812;53.540;9.774;2023-07-13T04:16:09;9.88;;;4.85;;
59950;SDS011;45812;53.540;9.774;2023-07-13T04:18:35;8.68;;;5.00;;
59950;SDS011;45812;53.540;9.774;2023-07-13T04:21:00;21.10;;;5.38;;
59950;SDS011;45812;53.540;9.774;2023-07-13T04:23:25;12.17;;;4.63;;
59950;SDS011;45812;53.540;9.774;2023-07-13T04:25:51;10.00;;;4.80;;
59950;SDS011;45812;53.540;9.774;2023-07-13T04:28:18;9.00;;;5.10;;
59950;SDS011;45812;53.540;9.774;2023-07-13T04:30:48;9.30;;;5.18;;
59950;SDS011;45812;53.540;9.774;2023-07-13T04:33:14;10.75;;;4.88;;
59950;SDS011;45812;53.540;9.774;2023-07-13T04:35:39;12.65;;;5.20;;
59950;SDS011;45812;53.540;9.774;2023-07-13T04:38:04;7.10;;;5.18;;
59950;SDS011;45812;53.540;9.774;2023-07-13T04:40:30;10.02;;;5.43;;
59950;SDS011;45812;53.540;9.774;2023-07-13T04:42:56;14.85;;;5.03;;
59950;SDS011;45812;53.540;9.774;2023-07-13T04:45:21;13.15;;;5.63;;
59950;SDS011;45812;53.540;9.774;2023-07-13T04:47:49;9.48;;;5.47;;
59950;SDS011;45812;53.540;9.774;2023-07-13T04:50:14;20.73;;;5.25;;
59950;SDS011;45812;53.540;9.774;2023-07-13T04:52:46;12.10;;;5.47;;
59950;SDS011;45812;53.540;9.774;2023-07-13T04:55:11;15.88;;;6.88;;
59950;SDS011;45812;53.540;9.774;2023-07-13T04:57:36;12.23;;;5.60;;
59950;SDS011;45812;53.540;9.774;2023-07-13T05:00:02;12.85;;;5.25;;
59950;SDS011;45812;53.540;9.774;2023-07-13T05:02:31;11.63;;;5.10;;
59950;SDS011;45812;53.540;9.774;2023-07-13T05:04:57;10.40;;;5.68;;
59950;SDS011;45812;53.540;9.774;2023-07-13T05:07:22;10.57;;;5.30;;
59950;SDS011;45812;53.540;9.774;2023-07-13T05:09:48;11.65;;;5.47;;
59950;SDS011;45812;53.540;9.774;2023-07-13T05:12:13;13.10;;;5.47;;
59950;SDS011;45812;53.540;9.774;2023-07-13T05:14:38;12.93;;;5.33;;
59950;SDS011;45812;53.540;9.774;2023-07-13T05:17:04;15.27;;;5.40;;
59950;SDS011;45812;53.540;9.774;2023-07-13T05:19:29;10.82;;;5.50;;
59950;SDS011;45812;53.540;9.774;2023-07-13T05:21:55;11.85;;;5.82;;
59950;SDS011;45812;53.540;9.774;2023-07-13T05:24:20;13.83;;;5.17;;
59950;SDS011;45812;53.540;9.774;2023-07-13T05:26:45;14.40;;;5.17;;
59950;SDS011;45812;53.540;9.774;2023-07-13T05:29:11;10.07;;;4.65;;
59950;SDS011;45812;53.540;9.774;2023-07-13T05:31:36;14.20;;;5.32;;
59950;SDS011;45812;53.540;9.774;2023-07-13T05:34:01;12.10;;;4.97;;
59950;SDS011;45812;53.540;9.774;2023-07-13T05:36:27;15.95;;;6.07;;
59950;SDS011;45812;53.540;9.774;2023-07-13T05:38:52;12.57;;;4.77;;
59950;SDS011;45812;53.540;9.774;2023-07-13T05:41:17;13.47;;;5.67;;
59950;SDS011;45812;53.540;9.774;2023-07-13T05:43:42;13.73;;;5.20;;
59950;SDS011;45812;53.540;9.774;2023-07-13T05:46:08;13.15;;;5.22;;
59950;SDS011;45812;53.540;9.774;2023-07-13T05:48:33;10.43;;;4.70;;
59950;SDS011;45812;53.540;9.774;2023-07-13T05:50:58;15.63;;;5.00;;
59950;SDS011;45812;53.540;9.774;2023-07-13T05:53:23;12.98;;;4.75;;
59950;SDS011;45812;53.540;9.774;2023-07-13T05:55:49;14.48;;;5.43;;
59950;SDS011;45812;53.540;9.774;2023-07-13T05:58:17;9.05;;;4.05;;
59950;SDS011;45812;53.540;9.774;2023-07-13T06:00:43;12.90;;;4.40;;
59950;SDS011;45812;53.540;9.774;2023-07-13T06:03:08;8.85;;;4.20;;
59950;SDS011;45812;53.540;9.774;2023-07-13T06:05:34;8.50;;;4.03;;
59950;SDS011;45812;53.540;9.774;2023-07-13T06:08:01;20.88;;;4.18;;
59950;SDS011;45812;53.540;9.774;2023-07-13T06:10:27;7.72;;;4.10;;
59950;SDS011;45812;53.540;9.774;2023-07-13T06:12:52;9.87;;;3.87;;
59950;SDS011;45812;53.540;9.774;2023-07-13T06:15:17;9.40;;;3.97;;
59950;SDS011;45812;53.540;9.774;2023-07-13T06:17:43;11.20;;;3.35;;
59950;SDS011;45812;53.540;9.774;2023-07-13T06:20:08;17.58;;;5.32;;
59950;SDS011;45812;53.540;9.774;2023-07-13T06:22:34;13.02;;;3.92;;
59950;SDS011;45812;53.540;9.774;2023-07-13T06:24:59;14.80;;;3.80;;
59950;SDS011;45812;53.540;9.774;2023-07-13T06:27:24;10.13;;;3.93;;
59950;SDS011;45812;53.540;9.774;2023-07-13T06:29:50;9.43;;;3.42;;
59950;SDS011;45812;53.540;9.774;2023-07-13T06:32:15;13.32;;;3.72;;
59950;SDS011;45812;53.540;9.774;2023-07-13T06:34:41;6.90;;;3.80;;
59950;SDS011;45812;53.540;9.774;2023-07-13T06:37:06;9.27;;;3.67;;
59950;SDS011;45812;53.540;9.774;2023-07-13T06:39:32;15.48;;;3.70;;
59950;SDS011;45812;53.540;9.774;2023-07-13T06:41:57;10.38;;;4.18;;
59950;SDS011;45812;53.540;9.774;2023-07-13T06:44:22;13.67;;;3.40;;
59950;SDS011;45812;53.540;9.774;2023-07-13T06:46:48;16.60;;;4.75;;
59950;SDS011;45812;53.540;9.774;2023-07-13T06:49:13;12.43;;;3.67;;
59950;SDS011;45812;53.540;9.774;2023-07-13T06:51:38;15.80;;;3.57;;
59950;SDS011;45812;53.540;9.774;2023-07-13T06:54:03;12.90;;;3.97;;
59950;SDS011;45812;53.540;9.774;2023-07-13T06:56:29;10.48;;;3.63;;
59950;SDS011;45812;53.540;9.774;2023-07-13T06:58:54;11.30;;;3.40;;
59950;SDS011;45812;53.540;9.774;2023-07-13T07:01:19;8.50;;;3.00;;
59950;SDS011;45812;53.540;9.774;2023-07-13T07:03:45;8.38;;;3.30;;
59950;SDS011;45812;53.540;9.774;2023-07-13T07:06:15;13.63;;;3.08;;
59950;SDS011;45812;53.540;9.774;2023-07-13T07:08:42;9.68;;;3.03;;
59950;SDS011;45812;53.540;9.774;2023-07-13T07:11:08;12.05;;;3.45;;
59950;SDS011;45812;53.540;9.774;2023-07-13T07:13:37;13.60;;;2.88;;
59950;SDS011;45812;53.540;9.774;2023-07-13T07:16:02;15.27;;;4.38;;
59950;SDS011;45812;53.540;9.774;2023-07-13T07:18:28;11.35;;;3.38;;
59950;SDS011;45812;53.540;9.774;2023-07-13T07:20:53;14.97;;;3.73;;
59950;SDS011;45812;53.540;9.774;2023-07-13T07:23:18;10.93;;;3.33;;
59950;SDS011;45812;53.540;9.774;2023-07-13T07:25:44;13.45;;;3.95;;
59950;SDS011;45812;53.540;9.774;2023-07-13T07:28:09;12.55;;;3.92;;
59950;SDS011;45812;53.540;9.774;2023-07-13T07:30:34;9.23;;;3.70;;
59950;SDS011;45812;53.540;9.774;2023-07-13T07:33:00;15.15;;;4.20;;
59950;SDS011;45812;53.540;9.774;2023-07-13T07:35:26;9.23;;;3.33;;
59950;SDS011;45812;53.540;9.774;2023-07-13T07:37:51;13.07;;;3.25;;
59950;SDS011;45812;53.540;9.774;2023-07-13T07:40:17;11.73;;;3.30;;
59950;SDS011;45812;53.540;9.774;2023-07-13T07:42:43;12.65;;;3.22;;
59950;SDS011;45812;53.540;9.774;2023-07-13T07:45:08;10.33;;;3.13;;
59950;SDS011;45812;53.540;9.774;2023-07-13T07:47:36;14.65;;;4.10;;
59950;SDS011;45812;53.540;9.774;2023-07-13T07:50:01;8.00;;;3.50;;
59950;SDS011;45812;53.540;9.774;2023-07-13T07:52:26;13.93;;;2.83;;
59950;SDS011;45812;53.540;9.774;2023-07-13T07:54:52;13.02;;;3.08;;
59950;SDS011;45812;53.540;9.774;2023-07-13T07:57:17;15.90;;;3.03;;
59950;SDS011;45812;53.540;9.774;2023-07-13T07:59:42;8.63;;;3.60;;
59950;SDS011;45812;53.540;9.774;2023-07-13T08:02:08;11.37;;;3.00;;
59950;SDS011;45812;53.540;9.774;2023-07-13T08:04:35;11.07;;;2.45;;
59950;SDS011;45812;53.540;9.774;2023-07-13T08:07:00;14.63;;;2.87;;
59950;SDS011;45812;53.540;9.774;2023-07-13T08:09:27;6.18;;;2.50;;
59950;SDS011;45812;53.540;9.774;2023-07-13T08:11:53;16.65;;;3.40;;
59950;SDS011;45812;53.540;9.774;2023-07-13T08:14:19;13.13;;;3.20;;
59950;SDS011;45812;53.540;9.774;2023-07-13T08:16:45;15.82;;;3.63;;
59950;SDS011;45812;53.540;9.774;2023-07-13T08:19:10;16.95;;;4.43;;
59950;SDS011;45812;53.540;9.774;2023-07-13T08:21:36;9.95;;;3.03;;
59950;SDS011;45812;53.540;9.774;2023-07-13T08:24:02;12.07;;;2.78;;
59950;SDS011;45812;53.540;9.774;2023-07-13T08:26:27;7.20;;;3.00;;
59950;SDS011;45812;53.540;9.774;2023-07-13T08:28:52;9.70;;;3.25;;
59950;SDS011;45812;53.540;9.774;2023-07-13T08:31:18;12.60;;;2.90;;
59950;SDS011;45812;53.540;9.774;2023-07-13T08:33:43;9.10;;;3.03;;
59950;SDS011;45812;53.540;9.774;2023-07-13T08:36:08;16.60;;;3.47;;
59950;SDS011;45812;53.540;9.774;2023-07-13T08:38:33;17.60;;;3.65;;
59950;SDS011;45812;53.540;9.774;2023-07-13T08:40:59;9.33;;;3.77;;
59950;SDS011;45812;53.540;9.774;2023-07-13T08:43:36;9.00;;;3.05;;
59950;SDS011;45812;53.540;9.774;2023-07-13T08:46:08;10.38;;;2.70;;
59950;SDS011;45812;53.540;9.774;2023-07-13T08:48:40;12.88;;;2.40;;
59950;SDS011;45812;53.540;9.774;2023-07-13T08:56:53;17.08;;;3.08;;
59950;SDS011;45812;53.540;9.774;2023-07-13T08:59:19;8.48;;;2.50;;
59950;SDS011;45812;53.540;9.774;2023-07-13T09:04:50;7.50;;;1.80;;
59950;SDS011;45812;53.540;9.774;2023-07-13T09:10:30;10.10;;;3.08;;
59950;SDS011;45812;53.540;9.774;2023-07-13T09:15:31;16.42;;;3.28;;
59950;SDS011;45812;53.540;9.774;2023-07-13T09:18:03;16.60;;;3.15;;
59950;SDS011;45812;53.540;9.774;2023-07-13T09:20:35;19.30;;;3.40;;
59950;SDS011;45812;53.540;9.774;2023-07-13T09:23:09;11.57;;;3.40;;
59950;SDS011;45812;53.540;9.774;2023-07-13T09:25:39;9.48;;;3.08;;
59950;SDS011;45812;53.540;9.774;2023-07-13T09:28:11;10.98;;;2.78;;
59950;SDS011;45812;53.540;9.774;2023-07-13T09:33:10;10.03;;;3.27;;
59950;SDS011;45812;53.540;9.774;2023-07-13T09:35:35;5.50;;;2.60;;
59950;SDS011;45812;53.540;9.774;2023-07-13T09:38:19;5.47;;;2.40;;
59950;SDS011;45812;53.540;9.774;2023-07-13T09:41:00;11.02;;;2.80;;
59950;SDS011;45812;53.540;9.774;2023-07-13T09:43:28;7.18;;;2.65;;
59950;SDS011;45812;53.540;9.774;2023-07-13T09:45:53;5.85;;;2.30;;
59950;SDS011;45812;53.540;9.774;2023-07-13T09:48:20;8.18;;;3.05;;
59950;SDS011;45812;53.540;9.774;2023-07-13T09:50:45;5.68;;;2.22;;
59950;SDS011;45812;53.540;9.774;2023-07-13T09:53:14;8.35;;;3.08;;
59950;SDS011;45812;53.540;9.774;2023-07-13T09:55:42;6.45;;;2.20;;
59950;SDS011;45812;53.540;9.774;2023-07-13T09:58:14;8.57;;;3.20;;
59950;SDS011;45812;53.540;9.774;2023-07-13T10:00:53;6.00;;;2.30;;
59950;SDS011;45812;53.540;9.774;2023-07-13T10:03:26;6.68;;;2.78;;
59950;SDS011;45812;53.540;9.774;2023-07-13T10:06:00;10.00;;;2.88;;
59950;SDS011;45812;53.540;9.774;2023-07-13T10:08:35;6.00;;;2.42;;
59950;SDS011;45812;53.540;9.774;2023-07-13T10:11:23;11.45;;;2.53;;
59950;SDS011;45812;53.540;9.774;2023-07-13T10:16:20;6.32;;;2.28;;
59950;SDS011;45812;53.540;9.774;2023-07-13T10:18:54;3.92;;;2.10;;
59950;SDS011;45812;53.540;9.774;2023-07-13T10:21:23;7.45;;;2.38;;
59950;SDS011;45812;53.540;9.774;2023-07-13T10:23:54;7.90;;;2.53;;
59950;SDS011;45812;53.540;9.774;2023-07-13T10:26:27;5.85;;;2.35;;
59950;SDS011;45812;53.540;9.774;2023-07-13T10:28:56;5.95;;;2.10;;
59950;SDS011;45812;53.540;9.774;2023-07-13T10:31:24;6.55;;;2.40;;
59950;SDS011;45812;53.540;9.774;2023-07-13T10:33:50;6.82;;;2.47;;
59950;SDS011;45812;53.540;9.774;2023-07-13T10:36:25;5.88;;;2.50;;
59950;SDS011;45812;53.540;9.774;2023-07-13T10:38:55;8.77;;;2.20;;
59950;SDS011;45812;53.540;9.774;2023-07-13T10:41:24;10.32;;;2.47;;
59950;SDS011;45812;53.540;9.774;2023-07-13T10:43:53;4.95;;;2.10;;
59950;SDS011;45812;53.540;9.774;2023-07-13T10:46:21;6.10;;;2.05;;
59950;SDS011;45812;53.540;9.774;2023-07-13T10:48:49;9.35;;;2.17;;
59950;SDS011;45812;53.540;9.774;2023-07-13T10:51:18;5.85;;;2.10;;
59950;SDS011;45812;53.540;9.774;2023-07-13T10:53:47;3.85;;;1.98;;
59950;SDS011;45812;53.540;9.774;2023-07-13T10:56:40;7.10;;;1.73;;
59950;SDS011;45812;53.540;9.774;2023-07-13T11:01:48;6.15;;;1.73;;
59950;SDS011;45812;53.540;9.774;2023-07-13T11:04:19;7.53;;;2.17;;
59950;SDS011;45812;53.540;9.774;2023-07-13T11:06:46;4.20;;;1.60;;
59950;SDS011;45812;53.540;9.774;2023-07-13T11:11:53;3.28;;;1.67;;
59950;SDS011;45812;53.540;9.774;2023-07-13T11:14:34;3.83;;;1.80;;
59950;SDS011;45812;53.540;9.774;2023-07-13T11:20:09;6.00;;;1.95;;
59950;SDS011;45812;53.540;9.774;2023-07-13T11:22:44;3.80;;;1.90;;
59950;SDS011;45812;53.540;9.774;2023-07-13T11:30:38;8.15;;;1.92;;
59950;SDS011;45812;53.540;9.774;2023-07-13T11:33:18;3.17;;;1.88;;
59950;SDS011;45812;53.540;9.774;2023-07-13T11:38:42;5.97;;;2.05;;
59950;SDS011;45812;53.540;9.774;2023-07-13T11:44:14;4.55;;;1.73;;
59950;SDS011;45812;53.540;9.774;2023-07-13T11:46:45;3.13;;;1.70;;
59950;SDS011;45812;53.540;9.774;2023-07-13T11:49:15;9.10;;;1.83;;
59950;SDS011;45812;53.540;9.774;2023-07-13T11:51:41;7.32;;;2.10;;
59950;SDS011;45812;53.540;9.774;2023-07-13T11:56:49;5.63;;;2.00;;
59950;SDS011;45812;53.540;9.774;2023-07-13T11:59:14;5.55;;;2.22;;
59950;SDS011;45812;53.540;9.774;2023-07-13T12:01:42;6.13;;;2.17;;
59950;SDS011;45812;53.540;9.774;2023-07-13T12:04:18;5.68;;;1.55;;
59950;SDS011;45812;53.540;9.774;2023-07-13T12:06:53;5.63;;;1.55;;
59950;SDS011;45812;53.540;9.774;2023-07-13T12:09:27;8.23;;;1.60;;
59950;SDS011;45812;53.540;9.774;2023-07-13T12:11:53;5.05;;;1.67;;
59950;SDS011;45812;53.540;9.774;2023-07-13T12:14:19;6.00;;;2.78;;
59950;SDS011;45812;53.540;9.774;2023-07-13T12:16:47;6.28;;;1.73;;
59950;SDS011;45812;53.540;9.774;2023-07-13T12:19:18;4.00;;;1.85;;
59950;SDS011;45812;53.540;9.774;2023-07-13T12:21:46;6.32;;;1.60;;
59950;SDS011;45812;53.540;9.774;2023-07-13T12:24:16;3.50;;;1.63;;
59950;SDS011;45812;53.540;9.774;2023-07-13T12:26:43;2.28;;;1.80;;
59950;SDS011;45812;53.540;9.774;2023-07-13T12:29:15;9.00;;;2.30;;
59950;SDS011;45812;53.540;9.774;2023-07-13T12:31:42;4.43;;;1.80;;
59950;SDS011;45812;53.540;9.774;2023-07-13T12:34:13;2.78;;;1.42;;
59950;SDS011;45812;53.540;9.774;2023-07-13T12:36:40;5.78;;;1.75;;
59950;SDS011;45812;53.540;9.774;2023-07-13T12:39:22;3.28;;;1.58;;
59950;SDS011;45812;53.540;9.774;2023-07-13T12:41:51;4.40;;;1.50;;
59950;SDS011;45812;53.540;9.774;2023-07-13T12:44:23;2.45;;;1.67;;
59950;SDS011;45812;53.540;9.774;2023-07-13T12:46:54;6.72;;;1.65;;
59950;SDS011;45812;53.540;9.774;2023-07-13T12:49:27;1.45;;;1.13;;
59950;SDS011;45812;53.540;9.774;2023-07-13T12:51:56;7.00;;;1.90;;
59950;SDS011;45812;53.540;9.774;2023-07-13T12:54:24;5.38;;;1.77;;
59950;SDS011;45812;53.540;9.774;2023-07-13T12:56:49;4.88;;;1.85;;
59950;SDS011;45812;53.540;9.774;2023-07-13T12:59:19;4.68;;;1.85;;
59950;SDS011;45812;53.540;9.774;2023-07-13T13:01:46;3.70;;;1.80;;
59950;SDS011;45812;53.540;9.774;2023-07-13T13:04:14;4.10;;;2.30;;
59950;SDS011;45812;53.540;9.774;2023-07-13T13:06:40;3.28;;;2.00;;
59950;SDS011;45812;53.540;9.774;2023-07-13T13:09:09;2.50;;;2.30;;
59950;SDS011;45812;53.540;9.774;2023-07-13T13:11:38;1.85;;;1.38;;
59950;SDS011;45812;53.540;9.774;2023-07-13T13:14:04;11.30;;;3.10;;
59950;SDS011;45812;53.540;9.774;2023-07-13T13:16:31;2.85;;;1.30;;
59950;SDS011;45812;53.540;9.774;2023-07-13T13:18:59;4.28;;;1.38;;
59950;SDS011;45812;53.540;9.774;2023-07-13T13:21:28;2.83;;;1.42;;
59950;SDS011;45812;53.540;9.774;2023-07-13T13:23:53;2.47;;;1.60;;
59950;SDS011;45812;53.540;9.774;2023-07-13T13:26:19;3.67;;;1.27;;
59950;SDS011;45812;53.540;9.774;2023-07-13T13:28:46;1.80;;;1.40;;
59950;SDS011;45812;53.540;9.774;2023-07-13T13:31:12;4.43;;;1.98;;
59950;SDS011;45812;53.540;9.774;2023-07-13T13:33:40;4.63;;;1.75;;
59950;SDS011;45812;53.540;9.774;2023-07-13T13:36:18;3.75;;;1.70;;
59950;SDS011;45812;53.540;9.774;2023-07-13T13:38:46;8.55;;;1.88;;
59950;SDS011;45812;53.540;9.774;2023-07-13T13:41:13;2.25;;;1.42;;
59950;SDS011;45812;53.540;9.774;2023-07-13T13:43:42;2.05;;;1.52;;
59950;SDS011;45812;53.540;9.774;2023-07-13T13:46:17;4.90;;;1.58;;
59950;SDS011;45812;53.540;9.774;2023-07-13T13:48:44;5.10;;;1.65;;
59950;SDS011;45812;53.540;9.774;2023-07-13T13:51:14;2.58;;;1.90;;
59950;SDS011;45812;53.540;9.774;2023-07-13T13:53:44;1.60;;;1.50;;
59950;SDS011;45812;53.540;9.774;2023-07-13T13:56:10;7.15;;;2.30;;
59950;SDS011;45812;53.540;9.774;2023-07-13T13:58:36;7.60;;;2.40;;
59950;SDS011;45812;53.540;9.774;2023-07-13T14:01:01;4.40;;;1.83;;
59950;SDS011;45812;53.540;9.774;2023-07-13T14:03:27;5.20;;;2.17;;
59950;SDS011;45812;53.540;9.774;2023-07-13T14:05:53;4.53;;;1.88;;
59950;SDS011;45812;53.540;9.774;2023-07-13T14:08:19;3.05;;;1.48;;
59950;SDS011;45812;53.540;9.774;2023-07-13T14:10:46;1.80;;;1.60;;
59950;SDS011;45812;53.540;9.774;2023-07-13T14:13:15;4.75;;;1.85;;
59950;SDS011;45812;53.540;9.774;2023-07-13T14:15:45;4.47;;;1.80;;
59950;SDS011;45812;53.540;9.774;2023-07-13T14:18:10;4.15;;;1.92;;
59950;SDS011;45812;53.540;9.774;2023-07-13T14:20:36;2.88;;;1.55;;
59950;SDS011;45812;53.540;9.774;2023-07-13T14:23:02;3.10;;;2.20;;
59950;SDS011;45812;53.540;9.774;2023-07-13T14:25:27;4.10;;;1.70;;
59950;SDS011;45812;53.540;9.774;2023-07-13T14:27:53;3.13;;;2.00;;
59950;SDS011;45812;53.540;9.774;2023-07-13T14:30:23;3.72;;;1.95;;
59950;SDS011;45812;53.540;9.774;2023-07-13T14:32:49;3.35;;;2.40;;
59950;SDS011;45812;53.540;9.774;2023-07-13T14:35:15;7.00;;;2.20;;
59950;SDS011;45812;53.540;9.774;2023-07-13T14:37:42;5.57;;;2.10;;
59950;SDS011;45812;53.540;9.774;2023-07-13T14:42:50;2.92;;;1.90;;
59950;SDS011;45812;53.540;9.774;2023-07-13T14:45:16;5.80;;;2.57;;
59950;SDS011;45812;53.540;9.774;2023-07-13T14:47:42;4.68;;;2.10;;
59950;SDS011;45812;53.540;9.774;2023-07-13T14:50:12;3.35;;;2.42;;
59950;SDS011;45812;53.540;9.774;2023-07-13T14:52:40;2.20;;;1.70;;
59950;SDS011;45812;53.540;9.774;2023-07-13T14:55:12;3.45;;;1.88;;
59950;SDS011;45812;53.540;9.774;2023-07-13T14:57:40;1.92;;;1.30;;
59950;SDS011;45812;53.540;9.774;2023-07-13T15:00:16;3.67;;;1.80;;
59950;SDS011;45812;53.540;9.774;2023-07-13T15:02:49;1.40;;;1.30;;
59950;SDS011;45812;53.540;9.774;2023-07-13T15:05:17;1.50;;;1.40;;
59950;SDS011;45812;53.540;9.774;2023-07-13T15:07:51;3.20;;;1.50;;
59950;SDS011;45812;53.540;9.774;2023-07-13T15:10:22;1.85;;;1.38;;
59950;SDS011;45812;53.540;9.774;2023-07-13T15:12:50;3.67;;;1.50;;
59950;SDS011;45812;53.540;9.774;2023-07-13T15:15:16;5.50;;;1.73;;
59950;SDS011;45812;53.540;9.774;2023-07-13T15:17:42;1.63;;;1.52;;
59950;SDS011;45812;53.540;9.774;2023-07-13T15:20:17;3.75;;;1.85;;
59950;SDS011;45812;53.540;9.774;2023-07-13T15:22:46;2.08;;;1.67;;
59950;SDS011;45812;53.540;9.774;2023-07-13T15:25:17;3.50;;;1.77;;
59950;SDS011;45812;53.540;9.774;2023-07-13T15:27:44;1.73;;;1.58;;
59950;SDS011;45812;53.540;9.774;2023-07-13T15:30:10;2.83;;;1.67;;
59950;SDS011;45812;53.540;9.774;2023-07-13T15:32:35;1.63;;;1.50;;